Sinnamahoning, Pennsylvania
Current Conditions -  °F | °C
As of 3:54 AM on Saturday 25 Oct 2014 (Local Time) from KFIG Reporting Station
Broken Clouds Broken Clouds  
Wind Chill: 42°   Ceiling: 4700
Heat Index: 44°   Visibility: 10mi
Dew Point: 38°   Wind: 5mph
Humidity: 79%   Direction: 220°SW
Pressure: 29.95"   Gusts: NA
Location:  41.32°N, 78.1°W
Report Text: KFIG 250754Z AUTO 22004KT 10SM BKN047 07/03 A2995 RMK AO2 SLP144 T00670033
Loading
Personal Weather Stations






























Interactive Weather Map
Tropical Storm Tracking
New forecast layout! Learn more

10-Day Weather Forecast

Advertisements
Track Severe Weather on mobile